Sbi Parapara — D5LB9 — position and weather

sailwx.info

Track history (hours):
 
Tides and Currents Weather Stations Pressure Air Temp Water Temp Dewpoint Dewpoint Depression Visibility Wind Speed Wind Dir Waves Ship Positions

Sbi Parapara

Last reported at 2018-Feb-22 19:06 UTC. Time now 2018-Feb-25 02:17 UTC.
Position N 36°08' W 026°15'.

Length 229 m; draft 11.4 m.

Type: Cargo ship. MMSI: 636017465.

Date/timePositionNaut miles runAvg speedWind from/ knotsBaromVisibWave heightAir tempDewpointWater temp
2018-Feb-22 19:06N 36°08' W 026°15'112.7
2018-Feb-22 19:00N 36°08' W 026°14'612.7
2018-Feb-22 18:30N 36°09' W 026°06'612.5
2018-Feb-22 18:01N 36°10' W 025°59'612.8
2018-Feb-22 17:30N 36°11' W 025°51'612.6
2018-Feb-22 17:00N 36°12' W 025°43'612.7
2018-Feb-22 16:30N 36°13' W 025°35'812.5
2018-Feb-22 15:52N 36°14' W 025°25'512.6
2018-Feb-22 15:30N 36°15' W 025°20'612.3
2018-Feb-22 15:00N 36°16' W 025°12'612.8
2018-Feb-22 14:30N 36°17' W 025°04'612.6
2018-Feb-22 14:00N 36°18' W 024°57'612.5
2018-Feb-22 13:30N 36°19' W 024°49'612.6
2018-Feb-22 13:01N 36°20' W 024°41'612.5
2018-Feb-22 12:30N 36°21' W 024°34'612.4
2018-Feb-22 12:00N 36°22' W 024°26'612.4
2018-Feb-22 11:30N 36°23' W 024°19'612.6
2018-Feb-22 11:00N 36°24' W 024°11'612.6
2018-Feb-22 10:31N 36°25' W 024°03'612.5
2018-Feb-22 10:00N 36°26' W 023°55'612.7
2018-Feb-22 09:30N 36°27' W 023°48'612.7
2018-Feb-22 09:01N 36°28' W 023°40'  
2018-Feb-15 16:27N 36°39' E 014°02'610.3
2018-Feb-15 15:53N 36°37' E 014°09'410.3
2018-Feb-15 15:28N 36°35' E 014°14'5 9.9
2018-Feb-15 15:00N 36°34' E 014°19'5 9.5
2018-Feb-15 14:30N 36°32' E 014°25'5 9.7
2018-Feb-15 14:00N 36°30' E 014°30'5 9.7
2018-Feb-15 13:30N 36°29' E 014°36'5 9.4
2018-Feb-15 13:00N 36°27' E 014°42'5 9.6
2018-Feb-15 12:29N 36°25' E 014°47'  
Track history (hours):
 
Tides and Currents Weather Stations Pressure Air Temp Water Temp Dewpoint Dewpoint Depression Visibility Wind Speed Wind Dir Waves Ship Positions

Sbi Parapara

Last reported at 2018-Feb-22 19:06 UTC. Time now 2018-Feb-25 02:17 UTC.
Position N 36°08' W 026°15'.

Length 229 m; draft 11.4 m.

Type: Cargo ship. MMSI: 636017465.

Date/timePositionNaut miles runAvg speedWind from/ knotsBaromVisibWave heightAir tempDewpointWater temp
2018-Feb-22 19:06N 36°08' W 026°15'112.7
2018-Feb-22 19:00N 36°08' W 026°14'612.7
2018-Feb-22 18:30N 36°09' W 026°06'612.5
2018-Feb-22 18:01N 36°10' W 025°59'612.8
2018-Feb-22 17:30N 36°11' W 025°51'612.6
2018-Feb-22 17:00N 36°12' W 025°43'612.7
2018-Feb-22 16:30N 36°13' W 025°35'812.5
2018-Feb-22 15:52N 36°14' W 025°25'512.6
2018-Feb-22 15:30N 36°15' W 025°20'612.3
2018-Feb-22 15:00N 36°16' W 025°12'612.8
2018-Feb-22 14:30N 36°17' W 025°04'612.6
2018-Feb-22 14:00N 36°18' W 024°57'612.5
2018-Feb-22 13:30N 36°19' W 024°49'612.6
2018-Feb-22 13:01N 36°20' W 024°41'612.5
2018-Feb-22 12:30N 36°21' W 024°34'612.4
2018-Feb-22 12:00N 36°22' W 024°26'612.4
2018-Feb-22 11:30N 36°23' W 024°19'612.6
2018-Feb-22 11:00N 36°24' W 024°11'612.6
2018-Feb-22 10:31N 36°25' W 024°03'612.5
2018-Feb-22 10:00N 36°26' W 023°55'612.7
2018-Feb-22 09:30N 36°27' W 023°48'612.7
2018-Feb-22 09:01N 36°28' W 023°40'  
2018-Feb-15 16:27N 36°39' E 014°02'610.3
2018-Feb-15 15:53N 36°37' E 014°09'410.3
2018-Feb-15 15:28N 36°35' E 014°14'5 9.9
2018-Feb-15 15:00N 36°34' E 014°19'5 9.5
2018-Feb-15 14:30N 36°32' E 014°25'5 9.7
2018-Feb-15 14:00N 36°30' E 014°30'5 9.7
2018-Feb-15 13:30N 36°29' E 014°36'5 9.4
2018-Feb-15 13:00N 36°27' E 014°42'5 9.6
2018-Feb-15 12:29N 36°25' E 014°47'  

Dump ship's entire track history